Strona główna
METAR-TAF:

METAR-TAF

Lotnisko :

Port lotniczy Kupang-El Tari

Kupang, Indonezja

Szerokość geograficzna: 10-10-17S, Długość geograficzna: 123-40-16E, wysokość: 102 m

METAR: brakujący

czas: 04:59 (21:59 UTC)

Prognoza

Raport powstał 4 godziny i 59 minut temu, godzina 17:00 UTC
Prognoza ważna od 10 godzina 18 UTC do 11 godzina 18 UTC
Wiatr 3 kt od południowo-południowy wschód
Widzialność: 8000 m
Mało chmury na wysokości 1700 ft
Stopniowe zmiany
od 11 godzina 03 UTC do 11 godzina 05 UTC
Wiatr 10 kt od zachodnio-południowy zachód
Przerywane chmury na wysokości 1700 ft

TAF: WATT 101700Z 1018/1118 15003KT 8000 FEW017 BECMG 1103/1105 25010KT BKN017

Obserwacja i prognoza pogody dla ponad 4000 lotnisk (raport METAR i TAF).

Dostępne stacje oznaczono żółtymi i czerwonymi punktami na mapie.

Najedź kursorem aby zobaczyć nazwę stacji.

Kliknij aby zobaczyć obserwacje i prognozy pogody.

Aby zmienić mapę: kliknij na zielony przycisk z czarnym krzyżykiem, aby powiększyć; na zielony przycisk z myślnikiem, aby pomniejszyć; na zielone strzałki, aby przejść do map sąsiednich.


METAR-TAF: